Time;durP1;ratioP1;P1;durP2;ratioP2;P2;SDS_P1;SDS_P2;PMS_P1;PMS_P2;Temp;Humidity;BMP_temperature;BMP_pressure;BME280_temperature;BME280_humidity;BME280_pressure;Samples;Min_cycle;Max_cycle;Signal;HPM_P1;HPM_P2
2023/05/09 00:00:53;;;;;;;7.40;4.18;;;;;;;7.23;100.00;98958.91;4180161;28;20029;-72
2023/05/09 00:02:54;;;;;;;6.43;4.15;;;;;;;7.22;100.00;98957.31;4182904;28;20052;-72
2023/05/09 00:04:55;;;;;;;9.68;5.05;;;;;;;7.21;100.00;98953.75;4184986;28;20657;-72
2023/05/09 00:06:56;;;;;;;5.68;4.30;;;;;;;7.21;100.00;98961.22;4179743;28;20044;-71
2023/05/09 00:08:56;;;;;;;6.28;4.13;;;;;;;7.17;100.00;98963.03;4183802;28;20545;-71
2023/05/09 00:10:56;;;;;;;5.40;4.20;;;;;;;7.15;100.00;98963.38;4182004;28;20041;-71
2023/05/09 00:12:57;;;;;;;5.55;3.80;;;;;;;7.09;100.00;98962.00;4178590;28;20088;-71
2023/05/09 00:14:58;;;;;;;8.18;4.25;;;;;;;7.12;100.00;98972.34;4181560;28;20060;-71
2023/05/09 00:16:58;;;;;;;7.18;4.65;;;;;;;7.07;100.00;98958.00;4185370;28;20078;-72
2023/05/09 00:18:59;;;;;;;6.60;4.38;;;;;;;7.03;100.00;98960.63;4180473;28;20047;-71
2023/05/09 00:21:01;;;;;;;6.07;4.35;;;;;;;6.98;100.00;98956.16;4178142;28;20452;-72
2023/05/09 00:23:01;;;;;;;4.90;4.30;;;;;;;6.93;100.00;98953.63;4183376;28;20105;-72
2023/05/09 00:25:02;;;;;;;5.25;4.25;;;;;;;6.87;100.00;98952.25;4183603;28;20049;-71
2023/05/09 00:27:03;;;;;;;6.28;3.75;;;;;;;6.86;100.00;98952.56;4178328;28;20385;-72
2023/05/09 00:29:03;;;;;;;7.68;4.78;;;;;;;6.78;100.00;98950.72;4183291;28;20041;-71
2023/05/09 00:31:04;;;;;;;6.22;4.18;;;;;;;6.71;100.00;98954.06;4184099;28;20120;-72
2023/05/09 00:33:05;;;;;;;4.65;3.92;;;;;;;6.63;100.00;98949.47;4182977;28;20464;-71
2023/05/09 00:35:06;;;;;;;7.55;4.90;;;;;;;6.56;100.00;98955.50;4183207;28;20389;-71
2023/05/09 00:37:06;;;;;;;7.15;4.70;;;;;;;6.50;100.00;98948.63;4181991;28;20440;-71
2023/05/09 00:39:07;;;;;;;5.30;3.72;;;;;;;6.43;100.00;98951.91;4184998;28;20044;-71
2023/05/09 00:41:07;;;;;;;5.72;3.30;;;;;;;6.37;100.00;98946.97;4188974;28;20097;-72
2023/05/09 00:43:07;;;;;;;3.78;2.90;;;;;;;6.35;100.00;98938.25;4186261;28;20067;-72
2023/05/09 00:45:08;;;;;;;5.60;3.28;;;;;;;6.32;100.00;98941.69;4186174;28;20079;-71
2023/05/09 00:47:08;;;;;;;5.10;3.50;;;;;;;6.20;100.00;98935.00;4183493;28;20048;-71
2023/05/09 00:49:11;;;;;;;4.78;3.33;;;;;;;6.11;100.00;98937.03;4184970;28;20044;-71
2023/05/09 00:51:11;;;;;;;7.28;3.20;;;;;;;6.05;100.00;98935.66;4182200;28;20056;-72
2023/05/09 00:53:12;;;;;;;5.45;3.10;;;;;;;6.00;100.00;98929.53;4186692;28;20037;-71
2023/05/09 00:55:13;;;;;;;4.25;3.03;;;;;;;5.95;100.00;98929.75;4186080;28;20115;-71
2023/05/09 00:57:14;;;;;;;6.43;3.57;;;;;;;5.92;100.00;98922.97;4184851;28;20045;-71
2023/05/09 00:59:15;;;;;;;4.75;3.40;;;;;;;5.92;100.00;98925.72;4186335;28;20033;-71
2023/05/09 01:01:15;;;;;;;4.95;2.75;;;;;;;5.93;100.00;98912.81;4180314;28;20081;-71
2023/05/09 01:03:16;;;;;;;3.97;2.95;;;;;;;5.94;100.00;98917.94;4189988;28;20048;-71
2023/05/09 01:05:17;;;;;;;3.97;3.00;;;;;;;5.94;100.00;98917.94;4185538;28;20089;-71
2023/05/09 01:07:29;;;;;;;4.88;2.92;;;;;;;5.93;100.00;98913.59;4184345;28;20476;-71
2023/05/09 01:09:55;;;;;;;5.13;3.38;;;;;;;5.89;100.00;98907.16;4184586;28;20047;-71
2023/05/09 01:12:20;;;;;;;7.10;3.20;;;;;;;5.94;100.00;98909.72;4181429;28;20045;-71
2023/05/09 01:14:36;;;;;;;6.32;3.33;;;;;;;5.99;100.00;98906.78;4178329;28;20052;-71
2023/05/09 01:16:52;;;;;;;7.78;3.95;;;;;;;5.98;100.00;98902.41;4185551;28;20032;-71
2023/05/09 01:19:14;;;;;;;5.70;3.60;;;;;;;5.92;100.00;98898.28;4184577;28;20113;-71
2023/05/09 01:21:28;;;;;;;5.85;4.47;;;;;;;5.89;100.00;98901.66;4179939;28;20553;-71
2023/05/09 01:23:29;;;;;;;8.20;4.32;;;;;;;5.94;100.00;98903.41;4189267;28;20052;-71
2023/05/09 01:25:42;;;;;;;7.15;4.40;;;;;;;5.96;100.00;98898.38;4184546;28;20128;-71
2023/05/09 01:28:13;;;;;;;6.22;3.90;;;;;;;5.96;100.00;98901.97;4178424;28;20048;-71
2023/05/09 01:30:16;;;;;;;5.93;4.30;;;;;;;5.98;100.00;98901.63;4183801;28;20532;-71
2023/05/09 01:32:21;;;;;;;4.95;4.18;;;;;;;5.91;100.00;98899.41;4184798;28;20488;-71
2023/05/09 01:34:25;;;;;;;10.38;5.05;;;;;;;5.85;100.00;98896.03;4184151;28;20362;-71
2023/05/09 01:36:31;;;;;;;5.35;3.88;;;;;;;5.83;100.00;98900.25;4185882;28;20055;-71
2023/05/09 01:38:36;;;;;;;5.05;3.80;;;;;;;5.74;100.00;98902.28;4184360;28;20076;-71
2023/05/09 01:40:39;;;;;;;6.78;4.20;;;;;;;5.64;100.00;98896.06;4184332;28;20044;-71
2023/05/09 01:42:43;;;;;;;4.82;3.15;;;;;;;5.54;100.00;98890.94;4183824;28;20277;-71
2023/05/09 01:44:45;;;;;;;4.88;3.20;;;;;;;5.47;100.00;98890.69;4181489;28;20551;-71
2023/05/09 01:46:46;;;;;;;5.50;3.63;;;;;;;5.43;100.00;98886.19;4183660;28;20226;-71
2023/05/09 01:48:49;;;;;;;5.85;3.47;;;;;;;5.39;100.00;98893.50;4182806;28;20080;-71
2023/05/09 01:50:49;;;;;;;4.32;3.30;;;;;;;5.29;100.00;98881.75;4184717;28;20048;-71
2023/05/09 01:52:53;;;;;;;6.18;3.60;;;;;;;5.21;100.00;98890.06;4182378;28;20049;-71
2023/05/09 01:54:55;;;;;;;4.70;2.72;;;;;;;5.11;100.00;98901.41;4182238;28;20063;-71
2023/05/09 01:56:57;;;;;;;5.25;3.38;;;;;;;5.06;100.00;98891.44;4180858;28;20063;-71
2023/05/09 01:59:01;;;;;;;7.28;3.90;;;;;;;5.05;100.00;98895.34;4185503;28;20037;-71
2023/05/09 02:01:02;;;;;;;5.45;3.45;;;;;;;5.04;100.00;98890.97;4182500;28;20052;-71
2023/05/09 02:03:03;;;;;;;4.78;3.08;;;;;;;5.07;100.00;98885.63;4184455;28;20068;-71
2023/05/09 02:05:04;;;;;;;5.93;3.97;;;;;;;5.07;100.00;98885.63;4179952;28;20515;-71
2023/05/09 02:07:06;;;;;;;5.07;3.63;;;;;;;5.09;100.00;98885.28;4185308;28;20049;-71
2023/05/09 02:09:07;;;;;;;4.05;3.22;;;;;;;5.06;100.00;98881.28;4183551;28;20071;-71
2023/05/09 02:11:07;;;;;;;5.30;3.50;;;;;;;5.05;100.00;98881.63;4183915;28;20509;-71
2023/05/09 02:13:08;;;;;;;7.93;3.63;;;;;;;5.00;100.00;98888.09;4183861;28;20079;-71
2023/05/09 02:15:08;;;;;;;4.65;3.40;;;;;;;5.04;100.00;98886.28;4185640;28;20044;-71
2023/05/09 02:17:10;;;;;;;4.93;3.55;;;;;;;5.09;100.00;98879.81;4184710;28;20063;-71
2023/05/09 02:19:10;;;;;;;4.43;3.30;;;;;;;5.18;100.00;98879.75;4180675;28;20047;-71
2023/05/09 02:21:11;;;;;;;6.90;4.57;;;;;;;5.19;100.00;98876.66;4180815;28;20037;-71
2023/05/09 02:23:11;;;;;;;10.30;4.18;;;;;;;5.24;100.00;98886.66;4184418;28;20113;-71
2023/05/09 02:25:15;;;;;;;4.72;3.50;;;;;;;5.27;100.00;98873.06;4186336;28;20381;-71
2023/05/09 02:27:17;;;;;;;5.63;3.75;;;;;;;5.32;100.00;98874.81;4184008;28;20123;-71
2023/05/09 02:29:21;;;;;;;6.93;4.40;;;;;;;5.31;100.00;98878.72;4183379;28;20041;-71
2023/05/09 02:31:24;;;;;;;6.35;3.92;;;;;;;5.30;100.00;98879.84;4184161;28;20492;-71
2023/05/09 02:33:26;;;;;;;6.57;4.30;;;;;;;5.30;100.00;98882.59;4180713;28;20044;-71
2023/05/09 02:35:27;;;;;;;6.47;4.03;;;;;;;5.28;100.00;98877.41;4183812;28;20037;-71
2023/05/09 02:37:28;;;;;;;7.10;4.32;;;;;;;5.26;100.00;98881.63;4177427;28;20048;-71
2023/05/09 02:39:28;;;;;;;6.63;4.70;;;;;;;5.20;100.00;98880.22;4183775;28;20350;-71
2023/05/09 02:41:29;;;;;;;6.50;4.68;;;;;;;5.19;100.00;98881.34;4177306;28;20091;-71
2023/05/09 02:43:29;;;;;;;7.15;4.60;;;;;;;5.11;100.00;98874.78;4180381;28;20049;-71
2023/05/09 02:45:31;;;;;;;5.80;4.22;;;;;;;5.07;100.00;98885.63;4180274;28;20044;-71
2023/05/09 02:47:31;;;;;;;7.82;4.90;;;;;;;4.99;100.00;98882.94;4181166;28;20041;-71
2023/05/09 02:49:32;;;;;;;6.70;4.55;;;;;;;4.89;100.00;98883.31;4184196;28;20123;-71
2023/05/09 02:51:33;;;;;;;6.40;4.85;;;;;;;4.85;100.00;98880.41;4180103;28;20040;-71
2023/05/09 02:53:33;;;;;;;6.40;4.25;;;;;;;4.73;100.00;98880.34;4179017;28;20435;-71
2023/05/09 02:55:34;;;;;;;6.63;4.30;;;;;;;4.70;100.00;98884.50;4185518;28;20318;-71
2023/05/09 02:57:34;;;;;;;5.82;4.22;;;;;;;4.67;100.00;98882.44;4185786;28;20106;-71
2023/05/09 02:59:35;;;;;;;5.30;3.95;;;;;;;4.60;100.00;98879.41;4185047;28;20037;-71
2023/05/09 03:01:35;;;;;;;8.02;4.20;;;;;;;4.58;100.00;98878.13;4177512;28;20053;-71
2023/05/09 03:03:36;;;;;;;7.75;4.05;;;;;;;4.53;100.00;98876.38;4182627;28;20113;-71
2023/05/09 03:05:37;;;;;;;9.43;4.60;;;;;;;4.46;100.00;98867.84;4182048;28;20068;-71
2023/05/09 03:07:37;;;;;;;5.70;3.80;;;;;;;4.41;100.00;98871.59;4182460;28;20056;-71
2023/05/09 03:09:37;;;;;;;5.15;4.00;;;;;;;4.39;100.00;98871.13;4184225;28;20052;-71
2023/05/09 03:11:38;;;;;;;10.38;4.28;;;;;;;4.33;100.00;98871.63;4182235;28;20547;-71
2023/05/09 03:13:38;;;;;;;5.55;4.38;;;;;;;4.37;100.00;98876.09;4183020;28;20538;-72
2023/05/09 03:15:38;;;;;;;7.28;3.88;;;;;;;4.40;100.00;98866.44;4183635;28;20079;-71
2023/05/09 03:17:39;;;;;;;9.52;4.45;;;;;;;4.40;100.00;98869.97;4178170;28;20159;-71
2023/05/09 03:19:39;;;;;;;7.30;4.05;;;;;;;4.42;100.00;98872.38;4182038;28;20044;-71
2023/05/09 03:21:40;;;;;;;7.55;4.70;;;;;;;4.35;100.00;98867.41;4185692;28;20086;-71
2023/05/09 03:23:40;;;;;;;10.68;4.78;;;;;;;4.32;100.00;98870.81;4181143;28;20045;-71
2023/05/09 03:25:40;;;;;;;9.18;4.05;;;;;;;4.32;100.00;98864.53;4183391;28;20052;-71
2023/05/09 03:27:41;;;;;;;5.60;3.88;;;;;;;4.30;100.00;98864.03;4180316;28;20036;-71
2023/05/09 03:29:41;;;;;;;5.18;3.85;;;;;;;4.28;100.00;98858.09;4181431;28;20036;-71
2023/05/09 03:31:41;;;;;;;6.00;4.18;;;;;;;4.27;100.00;98860.03;4182976;28;20083;-71
2023/05/09 03:33:42;;;;;;;7.47;4.20;;;;;;;4.22;100.00;98854.75;4180943;28;20427;-71
2023/05/09 03:35:42;;;;;;;5.57;4.20;;;;;;;4.18;100.00;98860.03;4178851;28;20484;-71
2023/05/09 03:37:42;;;;;;;6.18;4.53;;;;;;;4.11;100.00;98867.97;4179775;28;20477;-71
2023/05/09 03:39:43;;;;;;;10.52;4.05;;;;;;;4.06;100.00;98861.88;4179753;28;20500;-71
2023/05/09 03:41:43;;;;;;;6.63;4.22;;;;;;;4.03;100.00;98852.34;4178251;28;20461;-71
2023/05/09 03:43:44;;;;;;;5.82;4.03;;;;;;;4.06;100.00;98851.72;4177278;28;20049;-71
2023/05/09 03:45:44;;;;;;;6.63;4.07;;;;;;;4.05;100.00;98841.88;4180350;28;20494;-71
2023/05/09 03:47:45;;;;;;;6.93;3.55;;;;;;;4.05;100.00;98836.38;4177838;28;20033;-71
2023/05/09 03:49:45;;;;;;;6.88;4.15;;;;;;;4.05;100.00;98841.06;4178689;28;20037;-71
2023/05/09 03:51:45;;;;;;;6.22;3.60;;;;;;;4.07;100.00;98844.31;4179187;28;20045;-71
2023/05/09 03:53:46;;;;;;;5.05;3.75;;;;;;;3.97;100.00;98841.88;4179306;28;20781;-71
2023/05/09 03:55:46;;;;;;;4.22;3.40;;;;;;;3.99;100.00;98843.19;4181757;28;20443;-71
2023/05/09 03:57:47;;;;;;;5.15;3.40;;;;;;;3.99;100.00;98845.13;4177770;28;20393;-71
2023/05/09 03:59:47;;;;;;;10.38;4.78;;;;;;;3.98;100.00;98847.06;4179392;28;20064;-71
2023/05/09 04:01:47;;;;;;;6.28;3.45;;;;;;;3.95;100.00;98834.81;4178674;28;20517;-71
2023/05/09 04:03:48;;;;;;;7.43;4.47;;;;;;;3.97;100.00;98841.88;4177411;28;20136;-71
2023/05/09 04:05:49;;;;;;;7.45;4.07;;;;;;;4.00;100.00;98836.59;4178836;28;21277;-71
2023/05/09 04:07:49;;;;;;;8.25;4.00;;;;;;;3.99;100.00;98845.94;4178978;28;20068;-71
2023/05/09 04:09:50;;;;;;;6.22;4.10;;;;;;;4.01;100.00;98849.16;4179585;28;20509;-71
2023/05/09 04:11:50;;;;;;;9.88;4.07;;;;;;;4.09;100.00;98847.50;4179994;28;20040;-71
2023/05/09 04:13:50;;;;;;;9.10;4.35;;;;;;;4.13;100.00;98843.78;4179146;28;20036;-71
2023/05/09 04:15:51;;;;;;;8.52;4.22;;;;;;;4.21;100.00;98836.66;4177263;28;21111;-71
2023/05/09 04:17:51;;;;;;;7.97;3.90;;;;;;;4.25;100.00;98845.06;4181558;28;20071;-71
2023/05/09 04:19:51;;;;;;;6.05;3.83;;;;;;;4.28;100.00;98841.66;4181002;28;20075;-71
2023/05/09 04:21:52;;;;;;;7.15;4.65;;;;;;;4.31;100.00;98851.97;4181228;28;20044;-71
2023/05/09 04:23:52;;;;;;;7.93;4.63;;;;;;;4.35;100.00;98850.16;4179051;28;20040;-71
2023/05/09 04:25:53;;;;;;;8.00;4.75;;;;;;;4.37;100.00;98851.44;4179032;28;20056;-71
2023/05/09 04:27:53;;;;;;;7.25;4.47;;;;;;;4.43;100.00;98847.41;4178497;28;20045;-71
2023/05/09 04:29:53;;;;;;;9.32;5.80;;;;;;;4.50;100.00;98847.69;4179249;28;20106;-71
2023/05/09 04:31:54;;;;;;;10.85;6.22;;;;;;;4.58;100.00;98857.00;4176987;28;20156;-71
2023/05/09 04:33:57;;;;;;;11.15;6.28;;;;;;;4.65;100.00;98851.03;4179867;28;20040;-71
2023/05/09 04:35:57;;;;;;;;;;;;;;;4.69;100.00;98849.22;4178086;28;20211;-71
2023/05/09 04:37:57;;;;;;;11.23;5.50;;;;;;;4.72;100.00;98854.06;4181616;28;19912;-71
2023/05/09 04:39:58;;;;;;;8.10;5.60;;;;;;;4.78;100.00;98845.28;4177706;28;20041;-71
2023/05/09 04:41:58;;;;;;;10.98;5.63;;;;;;;4.82;100.00;98845.44;4181914;28;20073;-71
2023/05/09 04:43:58;;;;;;;8.82;5.72;;;;;;;4.87;100.00;98858.16;4180298;28;20498;-71
2023/05/09 04:45:59;;;;;;;10.30;5.68;;;;;;;4.94;100.00;98847.47;4180658;28;20044;-71
2023/05/09 04:47:59;;;;;;;9.13;6.00;;;;;;;5.01;100.00;98853.25;4178380;28;20393;-71
2023/05/09 04:49:59;;;;;;;11.60;6.30;;;;;;;5.07;100.00;98847.22;4182961;28;20065;-71
2023/05/09 04:52:00;;;;;;;8.65;5.93;;;;;;;5.16;100.00;98847.19;4179575;28;20044;-71
2023/05/09 04:54:00;;;;;;;8.75;6.38;;;;;;;5.23;100.00;98844.72;4178472;28;20045;-71
2023/05/09 04:56:00;;;;;;;11.32;5.53;;;;;;;5.34;100.00;98845.91;4184597;28;20184;-71
2023/05/09 04:58:01;;;;;;;7.97;5.43;;;;;;;5.45;100.00;98838.06;4165400;27;20127;-71
2023/05/09 05:00:01;;;;;;;9.52;5.75;;;;;;;5.56;100.00;98846.72;4183973;28;20056;-71
2023/05/09 05:02:03;;;;;;;9.18;6.05;;;;;;;5.69;100.00;98848.34;4183325;28;20115;-71
2023/05/09 05:04:37;;;;;;;7.97;5.20;;;;;;;5.81;100.00;98842.13;4183772;28;20040;-71
2023/05/09 05:06:38;;;;;;;11.98;5.15;;;;;;;5.92;100.00;98837.84;4182601;28;20535;-71
2023/05/09 05:08:38;;;;;;;11.63;6.90;;;;;;;6.05;100.00;98838.69;4181276;28;20037;-71
2023/05/09 05:10:39;;;;;;;9.70;5.88;;;;;;;6.18;100.00;98832.06;4180326;28;20040;-71
2023/05/09 05:12:39;;;;;;;8.48;5.90;;;;;;;6.31;100.00;98824.66;4180109;28;20491;-71
2023/05/09 05:14:39;;;;;;;12.10;6.47;;;;;;;6.44;100.00;98818.03;4180924;28;20079;-71
2023/05/09 05:16:40;;;;;;;10.68;6.20;;;;;;;6.58;100.00;98818.50;4182425;28;20493;-71
2023/05/09 05:18:40;;;;;;;9.15;6.05;;;;;;;6.70;100.00;98825.94;4179001;28;20056;-71
2023/05/09 05:20:41;;;;;;;7.82;5.93;;;;;;;6.84;100.00;98823.66;4177802;28;20079;-71
2023/05/09 05:22:41;;;;;;;9.27;6.03;;;;;;;6.96;100.00;98817.34;4180697;28;20108;-71
2023/05/09 05:24:41;;;;;;;9.02;5.45;;;;;;;7.07;100.00;98812.16;4183444;28;20041;-71
2023/05/09 05:26:42;;;;;;;10.15;5.93;;;;;;;7.16;100.00;98810.09;4182804;28;20586;-71
2023/05/09 05:28:42;;;;;;;7.55;4.90;;;;;;;7.24;100.00;98803.66;4183334;28;20037;-71
2023/05/09 05:30:42;;;;;;;11.52;6.13;;;;;;;7.36;100.00;98811.06;4183353;28;20084;-71
2023/05/09 05:32:43;;;;;;;10.85;5.43;;;;;;;7.51;100.00;98810.31;4180978;28;20080;-71
2023/05/09 05:34:43;;;;;;;8.00;5.50;;;;;;;7.60;100.00;98799.97;4184405;28;20040;-71
2023/05/09 05:36:43;;;;;;;8.60;5.28;;;;;;;7.68;100.00;98796.25;4187083;28;21347;-72
2023/05/09 05:38:44;;;;;;;7.95;5.50;;;;;;;7.78;100.00;98789.47;4185338;28;20160;-71
2023/05/09 05:40:44;;;;;;;12.15;5.95;;;;;;;7.88;100.00;98800.78;4184441;28;20385;-71
2023/05/09 05:42:45;;;;;;;7.55;5.35;;;;;;;7.98;100.00;98798.66;4176032;28;20037;-71
2023/05/09 05:44:45;;;;;;;10.25;5.90;;;;;;;8.08;100.00;98798.13;4185370;28;20485;-71
2023/05/09 05:46:46;;;;;;;9.38;5.22;;;;;;;8.18;100.00;98797.59;4184421;28;20084;-71
2023/05/09 05:48:46;;;;;;;7.28;5.32;;;;;;;8.35;100.00;98794.53;4186329;28;20412;-71
2023/05/09 05:50:46;;;;;;;7.40;5.47;;;;;;;8.50;100.00;98794.88;4180518;28;20151;-71
2023/05/09 05:52:47;;;;;;;6.80;4.80;;;;;;;8.61;100.00;98788.50;4183304;28;20128;-71
2023/05/09 05:54:48;;;;;;;6.75;5.38;;;;;;;8.73;100.00;98785.63;4184966;28;20139;-71
2023/05/09 05:56:48;;;;;;;8.40;5.82;;;;;;;8.88;100.00;98789.50;4183452;28;20048;-71
2023/05/09 05:58:49;;;;;;;7.63;5.70;;;;;;;9.00;100.00;98789.38;4183798;28;20036;-71
2023/05/09 06:00:51;;;;;;;8.13;5.07;;;;;;;9.12;100.00;98777.44;4186640;28;20036;-71
2023/05/09 06:02:51;;;;;;;8.20;5.18;;;;;;;9.28;100.00;98780.94;4180609;28;20069;-71
2023/05/09 06:04:51;;;;;;;6.55;4.72;;;;;;;9.38;100.00;98784.28;4184360;28;20075;-71
2023/05/09 06:06:52;;;;;;;7.30;5.20;;;;;;;9.48;100.00;98776.22;4183556;28;20049;-71
2023/05/09 06:08:52;;;;;;;7.22;4.93;;;;;;;9.57;100.00;98776.00;4180906;28;20381;-71
2023/05/09 06:10:53;;;;;;;10.70;5.35;;;;;;;9.69;100.00;98775.88;4182121;28;20098;-71
2023/05/09 06:12:53;;;;;;;8.40;5.47;;;;;;;9.78;100.00;98772.88;4183680;28;20041;-71
2023/05/09 06:14:53;;;;;;;8.68;5.53;;;;;;;9.87;100.00;98767.91;4185451;28;20040;-71
2023/05/09 06:16:54;;;;;;;7.22;5.18;;;;;;;9.98;100.00;98768.91;4186579;28;20083;-71
2023/05/09 06:18:54;;;;;;;10.23;5.55;;;;;;;10.08;100.00;98761.97;4182471;28;20049;-71
2023/05/09 06:20:55;;;;;;;7.43;5.20;;;;;;;10.17;100.00;98762.50;4185404;28;20056;-71
2023/05/09 06:22:55;;;;;;;7.53;5.13;;;;;;;10.28;100.00;98758.00;4180294;28;20105;-71
2023/05/09 06:24:55;;;;;;;7.88;5.47;;;;;;;10.37;100.00;98761.31;4184195;28;20060;-71
2023/05/09 06:26:56;;;;;;;9.80;4.68;;;;;;;10.48;100.00;98755.97;4176907;28;20045;-71
2023/05/09 06:28:56;;;;;;;6.82;5.22;;;;;;;10.57;100.00;98753.72;4180586;28;20039;-71
2023/05/09 06:30:56;;;;;;;6.82;4.82;;;;;;;10.64;100.00;98753.84;4185051;28;20130;-71
2023/05/09 06:32:57;;;;;;;9.05;5.10;;;;;;;10.72;100.00;98749.22;4182989;28;20215;-71
2023/05/09 06:34:57;;;;;;;8.18;5.20;;;;;;;10.79;100.00;98754.06;4182087;28;20488;-71
2023/05/09 06:36:57;;;;;;;10.68;5.60;;;;;;;10.85;100.00;98747.84;4179622;28;20072;-71
2023/05/09 06:38:58;;;;;;;5.65;4.90;;;;;;;10.95;100.00;98743.63;4185113;28;20120;-71
2023/05/09 06:40:58;;;;;;;8.43;5.93;;;;;;;11.08;100.00;98746.97;4182757;28;20131;-71
2023/05/09 06:42:58;;;;;;;8.63;5.60;;;;;;;11.14;100.00;98748.25;4179182;28;20040;-71
2023/05/09 06:44:59;;;;;;;7.70;4.93;;;;;;;11.14;100.00;98737.97;4184988;28;20045;-71
2023/05/09 06:47:00;;;;;;;9.85;4.88;;;;;;;11.23;100.00;98737.66;4186123;28;20044;-71
2023/05/09 06:49:01;;;;;;;5.88;4.65;;;;;;;11.35;100.00;98731.91;4186154;28;20500;-71
2023/05/09 06:51:01;;;;;;;7.57;5.35;;;;;;;11.50;100.00;98727.31;4179426;28;20041;-71
2023/05/09 06:53:02;;;;;;;8.70;5.30;;;;;;;11.63;100.00;98725.91;4179614;28;20047;-71
2023/05/09 06:55:03;;;;;;;6.10;4.70;;;;;;;11.72;100.00;98722.81;4185163;28;20033;-71
2023/05/09 06:57:03;;;;;;;9.70;5.18;;;;;;;11.78;100.00;98713.78;4178919;28;20426;-71
2023/05/09 06:59:03;;;;;;;9.10;5.43;;;;;;;11.92;100.00;98718.72;4179789;28;20041;-71
2023/05/09 07:01:04;;;;;;;7.10;5.07;;;;;;;12.01;100.00;98710.09;4178446;28;20040;-71
2023/05/09 07:03:06;;;;;;;9.80;5.55;;;;;;;12.13;100.00;98709.00;4185262;28;20163;-72
2023/05/09 07:05:08;;;;;;;8.97;5.70;;;;;;;12.26;100.00;98710.31;4178770;28;20048;-71
2023/05/09 07:07:09;;;;;;;7.78;5.85;;;;;;;12.42;100.00;98704.50;4182636;28;20048;-71
2023/05/09 07:09:09;;;;;;;7.88;5.55;;;;;;;12.60;100.00;98705.41;4180919;28;20420;-71
2023/05/09 07:11:10;;;;;;;7.82;5.70;;;;;;;12.70;100.00;98709.44;4183773;28;20069;-72
2023/05/09 07:13:10;;;;;;;7.20;6.03;;;;;;;12.82;100.00;98707.13;4182083;28;20132;-72
2023/05/09 07:15:11;;;;;;;7.50;4.95;;;;;;;12.94;100.00;98704.03;4183982;28;20760;-71
2023/05/09 07:17:11;;;;;;;7.90;5.22;;;;;;;13.03;100.00;98702.91;4179844;28;20124;-72
2023/05/09 07:19:11;;;;;;;10.85;5.35;;;;;;;13.11;100.00;98699.75;4183394;28;20476;-71
2023/05/09 07:21:11;;;;;;;6.35;5.25;;;;;;;13.15;100.00;98692.22;4183211;28;20076;-72
2023/05/09 07:23:12;;;;;;;6.72;5.00;;;;;;;13.26;100.00;98702.66;4184650;27;20047;-72
2023/05/09 07:25:12;;;;;;;6.97;5.20;;;;;;;13.34;100.00;98704.28;4182345;28;20039;-72
2023/05/09 07:27:12;;;;;;;9.20;5.25;;;;;;;13.43;100.00;98699.94;4182235;28;20123;-72
2023/05/09 07:29:13;;;;;;;6.05;5.20;;;;;;;13.46;99.65;98701.91;4182011;28;20044;-72
2023/05/09 07:31:13;;;;;;;8.40;5.68;;;;;;;13.46;98.17;98698.34;4182578;28;20580;-72
2023/05/09 07:33:14;;;;;;;7.72;5.68;;;;;;;13.48;100.00;98691.19;4183561;28;20094;-72
2023/05/09 07:35:14;;;;;;;7.43;6.07;;;;;;;13.63;100.00;98694.03;4182156;28;20253;-72
2023/05/09 07:37:14;;;;;;;7.18;5.38;;;;;;;13.72;100.00;98686.09;4180260;28;20489;-72
2023/05/09 07:39:15;;;;;;;9.27;6.10;;;;;;;13.84;97.97;98671.84;4183647;28;20057;-72
2023/05/09 07:41:15;;;;;;;9.60;6.20;;;;;;;13.94;100.00;98668.25;4182618;28;20448;-72
2023/05/09 07:43:16;;;;;;;9.35;5.60;;;;;;;14.08;97.63;98663.91;4178720;28;20037;-72
2023/05/09 07:45:16;;;;;;;9.73;5.80;;;;;;;14.19;98.31;98659.94;4182681;28;20212;-72
2023/05/09 07:47:16;;;;;;;6.72;5.85;;;;;;;14.33;97.27;98653.56;4181956;28;20426;-72
2023/05/09 07:49:17;;;;;;;8.38;5.70;;;;;;;14.45;97.66;98658.75;4184230;28;20137;-72
2023/05/09 07:51:17;;;;;;;11.30;6.00;;;;;;;14.58;99.51;98653.56;4181360;28;20140;-72
2023/05/09 07:53:17;;;;;;;8.05;6.05;;;;;;;14.61;98.17;98650.78;4188138;28;20041;-72
2023/05/09 07:55:18;;;;;;;9.60;5.68;;;;;;;14.75;98.06;98652.75;4179153;28;20131;-72
2023/05/09 07:57:18;;;;;;;6.68;5.97;;;;;;;14.84;97.52;98646.75;4179304;28;20128;-72
2023/05/09 07:59:19;;;;;;;7.28;6.28;;;;;;;14.94;99.52;98639.53;4181652;28;20033;-72
2023/05/09 08:01:19;;;;;;;8.75;5.70;;;;;;;14.99;97.57;98639.94;4185243;28;20068;-72
2023/05/09 08:03:19;;;;;;;8.15;6.45;;;;;;;15.10;96.58;98634.31;4177179;28;20611;-72
2023/05/09 08:05:20;;;;;;;7.88;6.30;;;;;;;15.20;92.41;98632.69;4181907;28;20124;-72
2023/05/09 08:07:20;;;;;;;9.45;7.18;;;;;;;15.25;90.78;98621.91;4181812;28;20515;-72
2023/05/09 08:09:20;;;;;;;10.65;7.28;;;;;;;15.30;95.33;98601.16;4179443;28;20237;-72
2023/05/09 08:11:21;;;;;;;9.45;6.97;;;;;;;15.35;94.79;98618.25;4179401;28;20427;-72
2023/05/09 08:13:21;;;;;;;13.98;7.68;;;;;;;15.37;93.09;98612.28;4183047;28;20052;-72
2023/05/09 08:15:22;;;;;;;12.70;8.02;;;;;;;15.20;91.03;98610.38;4180222;28;20033;-72
2023/05/09 08:17:22;;;;;;;10.35;8.15;;;;;;;15.19;93.18;98612.38;4181973;28;20122;-72
2023/05/09 08:19:24;;;;;;;12.00;8.32;;;;;;;15.42;91.89;98604.28;4183571;28;20392;-72
2023/05/09 08:21:25;;;;;;;11.95;8.75;;;;;;;15.58;90.72;98609.38;4185060;28;20045;-72
2023/05/09 08:23:25;;;;;;;12.25;8.60;;;;;;;15.64;91.90;98606.97;4178164;28;20059;-72
2023/05/09 08:25:26;;;;;;;14.40;9.07;;;;;;;15.73;91.72;98604.53;4181826;28;20033;-72
2023/05/09 08:27:26;;;;;;;11.73;8.50;;;;;;;15.77;89.79;98601.69;4183519;28;20418;-72
2023/05/09 08:29:27;;;;;;;11.52;7.75;;;;;;;15.80;89.25;98603.66;4180488;28;20032;-72
2023/05/09 08:31:28;;;;;;;10.65;8.07;;;;;;;15.70;87.20;98603.31;4179895;28;20045;-72
2023/05/09 08:33:28;;;;;;;10.35;7.78;;;;;;;15.80;88.95;98589.72;4182651;28;20059;-72
2023/05/09 08:35:28;;;;;;;11.80;7.85;;;;;;;15.92;88.83;98589.22;4184650;28;20040;-72
2023/05/09 08:37:29;;;;;;;12.85;8.43;;;;;;;16.02;87.76;98593.91;4183696;28;20037;-72
2023/05/09 08:39:30;;;;;;;9.63;7.78;;;;;;;16.02;85.73;98586.34;4183778;28;20427;-72
2023/05/09 08:41:34;;;;;;;12.32;7.57;;;;;;;16.09;86.96;98587.50;4183893;28;20048;-72
2023/05/09 08:43:37;;;;;;;9.05;7.45;;;;;;;16.18;84.84;98582.22;4179852;28;20044;-72
2023/05/09 08:45:48;;;;;;;10.98;7.65;;;;;;;16.29;84.54;98582.91;4182891;28;20033;-72
2023/05/09 08:47:49;;;;;;;8.45;6.88;;;;;;;16.35;84.48;98581.25;4183060;28;20088;-72
2023/05/09 08:49:50;;;;;;;9.18;7.78;;;;;;;16.42;86.46;98585.97;4182624;28;20045;-72
2023/05/09 08:51:51;;;;;;;9.48;7.35;;;;;;;16.42;82.61;98574.81;4181549;28;20037;-72
2023/05/09 08:53:52;;;;;;;8.02;7.18;;;;;;;16.53;83.27;98578.28;4181378;28;20399;-72
2023/05/09 08:55:53;;;;;;;8.38;6.65;;;;;;;16.58;81.50;98580.63;4183751;28;20037;-72
2023/05/09 08:57:53;;;;;;;7.72;6.65;;;;;;;16.63;81.14;98576.56;4181584;28;20135;-72
2023/05/09 08:59:55;;;;;;;11.25;6.93;;;;;;;16.73;83.86;98575.69;4184421;28;20043;-72
2023/05/09 09:01:56;;;;;;;8.38;6.75;;;;;;;16.73;82.64;98559.72;4184782;28;20045;-72
2023/05/09 09:03:56;;;;;;;10.77;7.10;;;;;;;16.74;81.48;98560.53;4180433;28;20045;-72
2023/05/09 09:05:57;;;;;;;8.90;6.63;;;;;;;16.68;81.07;98567.75;4183375;28;20128;-72
2023/05/09 09:07:58;;;;;;;11.48;7.22;;;;;;;16.62;79.75;98559.00;4184850;28;20044;-72
2023/05/09 09:10:01;;;;;;;7.65;6.60;;;;;;;16.70;81.70;98554.97;4186386;28;20174;-72
2023/05/09 09:12:06;;;;;;;8.75;6.50;;;;;;;16.82;83.03;98557.22;4181520;28;20132;-72
2023/05/09 09:14:21;;;;;;;8.35;6.78;;;;;;;16.82;82.15;98556.44;4185497;28;20028;-73
2023/05/09 09:16:24;;;;;;;8.32;6.80;;;;;;;16.92;80.98;98555.50;4185970;28;20107;-72
2023/05/09 09:18:29;;;;;;;10.07;6.55;;;;;;;17.03;83.29;98546.97;4187331;28;20534;-72
2023/05/09 09:20:32;;;;;;;10.30;6.88;;;;;;;17.18;81.77;98553.16;4181640;28;20041;-73
2023/05/09 09:22:34;;;;;;;9.18;7.22;;;;;;;17.02;78.41;98537.78;4183452;28;20049;-72
2023/05/09 09:24:34;;;;;;;7.67;6.67;;;;;;;17.12;80.72;98541.66;4185223;28;20041;-72
2023/05/09 09:26:47;;;;;;;8.88;6.30;;;;;;;17.27;83.89;98536.66;4182826;28;20044;-73
2023/05/09 09:28:48;;;;;;;8.25;6.30;;;;;;;17.11;79.30;98542.88;4185013;28;20070;-73
2023/05/09 09:30:48;;;;;;;8.68;6.97;;;;;;;17.11;78.40;98537.28;4184577;28;20517;-72